Time;durP1;ratioP1;P1;durP2;ratioP2;P2;SDS_P1;SDS_P2;PMS_P1;PMS_P2;Temp;Humidity;BMP_temperature;BMP_pressure;BME280_temperature;BME280_humidity;BME280_pressure;Samples;Min_cycle;Max_cycle;Signal;HPM_P1;HPM_P2
2021/07/07 00:01:08;;;;;;;9.27;8.47;;;;;;;;;;834054;71;30407;-78
2021/07/07 00:16:14;;;;;;;9.77;8.97;;;;;;;25.67;49.95;94356.04;827691;71;33117;-76
2021/07/07 00:31:15;;;;;;;9.77;8.87;;;;;;;25.58;49.99;94357.21;827742;71;32715;-76
2021/07/07 00:46:15;;;;;;;9.00;8.30;;;;;;;25.49;50.38;94359.55;828163;71;32752;-80
2021/07/07 01:01:08;;;;;;;10.13;9.33;;;;;;;25.48;50.19;94360.69;828840;71;29786;-81
2021/07/07 01:16:15;;;;;;;10.83;9.77;;;;;;;25.48;50.33;94361.27;829423;70;32715;-81
2021/07/07 01:31:09;;;;;;;11.57;10.20;;;;;;;25.46;50.31;94368.37;834664;71;30554;-77
2021/07/07 01:46:14;;;;;;;11.20;10.23;;;;;;;25.05;51.42;94362.04;827890;71;32698;-80
2021/07/07 02:01:14;;;;;;;10.10;9.20;;;;;;;25.25;51.49;94372.44;828817;71;31800;-81
2021/07/07 02:16:09;;;;;;;11.17;10.27;;;;;;;25.29;51.29;94391.42;835386;71;28701;-82
2021/07/07 02:31:15;;;;;;;11.60;10.50;;;;;;;25.09;52.72;94413.07;828954;71;31872;-83
2021/07/07 02:46:16;;;;;;;12.03;10.80;;;;;;;24.36;53.74;94411.34;828745;71;31776;-86
2021/07/07 03:16:23;;;;;;;11.20;10.17;;;;;;;24.62;53.36;94418.94;829293;70;31735;-87
2021/07/07 03:46:25;;;;;;;10.40;9.50;;;;;;;25.46;51.27;94443.60;828757;71;31770;-82
2021/07/07 04:01:12;;;;;;;11.30;10.30;;;;;;;25.81;50.72;94438.00;834758;71;30411;-84
2021/07/07 04:16:08;;;;;;;11.97;10.83;;;;;;;26.02;50.42;94445.88;829379;71;28792;-82
2021/07/07 04:31:12;;;;;;;11.87;10.87;;;;;;;26.50;50.52;94462.25;834996;71;30942;-81
2021/07/07 04:46:34;;;;;;;14.40;13.10;;;;;;;26.02;52.01;94464.70;834209;71;32284;-86
2021/07/07 05:16:56;;;;;;;14.53;13.10;;;;;;;26.97;50.99;94471.48;806767;72;32016;-86
2021/07/07 05:31:14;;;;;;;13.60;12.40;;;;;;;;;;821087;71;30364;-84
2021/07/07 05:46:15;;;;;;;14.17;12.47;;;;;;;21.48;49.29;93698.31;826601;71;30349;-84
2021/07/07 06:01:21;;;;;;;14.17;12.90;;;;;;;27.53;47.32;94493.83;825069;70;32913;-85
2021/07/07 06:31:17;;;;;;;15.17;13.77;;;;;;;28.44;46.36;94489.16;829209;71;32749;-80
2021/07/07 06:46:10;;;;;;;12.77;11.47;;;;;;;28.97;44.73;94488.35;834848;71;30274;-80
2021/07/07 07:01:09;;;;;;;12.30;11.30;;;;;;;29.69;43.58;94496.81;834318;71;31204;-76
2021/07/07 07:16:08;;;;;;;12.00;11.00;;;;;;;30.49;41.35;94496.41;834256;71;29520;-78
2021/07/07 07:31:08;;;;;;;11.20;10.30;;;;;;;31.14;39.69;94504.03;834162;71;29741;-78
2021/07/07 07:46:21;;;;;;;11.30;10.40;;;;;;;31.74;38.38;94497.05;834546;71;32739;-79
2021/07/07 08:01:15;;;;;;;9.37;8.73;;;;;;;32.24;35.56;94502.44;833995;71;32727;-74
2021/07/07 08:16:18;;;;;;;11.00;10.17;;;;;;;31.77;35.46;94507.65;834171;71;32751;-77
2021/07/07 08:46:11;;;;;;;9.73;8.93;;;;;;;32.17;34.33;94517.58;828016;71;31452;-75
2021/07/07 09:31:59;;;;;;;9.07;8.37;;;;;;;32.35;33.54;94512.44;808893;72;32794;-81
2021/07/07 09:46:20;;;;;;;8.93;8.13;;;;;;;32.62;32.57;94515.44;824469;70;32787;-81
2021/07/07 10:01:29;;;;;;;8.23;7.40;;;;;;;32.90;31.71;94508.44;829940;71;33176;-80
2021/07/07 11:01:35;;;;;;;8.73;8.03;;;;;;;32.65;32.07;94492.84;828213;71;29316;-77
2021/07/07 11:16:24;;;;;;;10.37;9.57;;;;;;;33.10;32.40;94489.25;827996;71;32220;-76
2021/07/07 11:31:31;;;;;;;9.67;8.80;;;;;;;33.19;31.59;94463.50;794151;74;30391;-78
2021/07/07 11:46:23;;;;;;;9.50;8.80;;;;;;;33.03;32.62;94463.58;836070;70;31762;-79
2021/07/07 12:01:36;;;;;;;9.17;8.57;;;;;;;32.92;32.60;94470.70;828860;71;30289;-77
2021/07/07 12:16:47;;;;;;;10.60;9.70;;;;;;;32.99;33.09;94458.84;828436;71;29262;-77
2021/07/07 12:31:12;;;;;;;11.33;10.33;;;;;;;33.01;33.83;94457.81;834054;71;29304;-77
2021/07/07 13:01:31;;;;;;;10.10;9.40;;;;;;;32.65;33.75;94467.78;827348;71;31840;-77
2021/07/07 13:16:29;;;;;;;9.50;8.37;;;;;;;32.46;33.97;94465.38;828260;71;28856;-75
2021/07/07 13:31:32;;;;;;;10.40;9.30;;;;;;;32.02;34.10;94459.56;834881;71;31823;-86
2021/07/07 14:01:19;;;;;;;10.40;8.67;;;;;;;32.03;34.12;94475.25;829585;71;31698;-80
2021/07/07 14:31:20;;;;;;;9.47;8.77;;;;;;;30.98;35.47;94501.86;830625;70;31835;-79
2021/07/07 14:46:09;;;;;;;8.70;8.10;;;;;;;30.89;35.91;94491.00;828873;71;29274;-80
2021/07/07 15:16:15;;;;;;;9.73;8.93;;;;;;;30.65;37.47;94478.09;827637;71;31793;-81
2021/07/07 15:31:36;;;;;;;9.70;8.90;;;;;;;30.50;37.39;94485.00;821607;71;31763;-85
2021/07/07 15:46:15;;;;;;;9.33;8.53;;;;;;;30.41;37.81;94492.30;827576;71;31765;-83
2021/07/07 16:01:13;;;;;;;9.43;8.73;;;;;;;30.31;38.11;94503.53;819877;70;29385;-79
2021/07/07 16:16:16;;;;;;;10.47;9.67;;;;;;;30.09;38.52;94507.18;828608;71;31717;-81
2021/07/07 16:31:11;;;;;;;9.60;8.70;;;;;;;29.85;38.63;94516.49;828287;71;29459;-78
2021/07/07 16:46:31;;;;;;;;;;;;;;;;;;;;;
2021/07/07 17:01:08;;;;;;;12.50;11.50;;;;;;;29.29;39.78;94543.35;828535;71;28738;-83
2021/07/07 17:16:28;;;;;;;11.03;10.03;;;;;;;29.05;40.79;94555.98;824438;71;31803;-91
2021/07/07 17:31:10;;;;;;;9.67;8.80;;;;;;;28.73;41.68;94563.91;828396;71;29303;-82
2021/07/07 17:46:18;;;;;;;10.63;9.70;;;;;;;28.43;42.95;94568.63;827612;71;31746;-79
2021/07/07 18:16:09;;;;;;;9.80;8.77;;;;;;;27.76;46.01;94609.83;829350;71;29318;-80
2021/07/07 18:31:15;;;;;;;10.60;9.60;;;;;;;27.50;47.21;94641.55;828852;71;28679;-79
2021/07/07 18:46:10;;;;;;;11.67;10.57;;;;;;;27.30;48.48;94625.26;824409;71;29252;-81
2021/07/07 19:01:18;;;;;;;10.20;9.13;;;;;;;;;;829944;71;31920;-79
2021/07/07 19:16:11;;;;;;;11.10;10.10;;;;;;;26.70;49.94;94679.31;824569;71;29500;-78
2021/07/07 21:16:15;;;;;;;13.17;11.87;;;;;;;26.30;53.69;94705.44;820622;71;31843;-81
2021/07/07 21:31:09;;;;;;;11.70;10.67;;;;;;;26.48;52.91;94708.70;828408;71;29688;-81
2021/07/07 21:46:14;;;;;;;14.03;12.63;;;;;;;;;;828013;71;32207;-77
2021/07/07 22:01:14;;;;;;;13.20;11.90;;;;;;;26.49;52.73;94709.66;827713;71;31752;-78
2021/07/07 22:16:07;;;;;;;10.50;9.70;;;;;;;;;;828899;71;28745;-81
2021/07/07 22:31:08;;;;;;;9.87;9.07;;;;;;;26.14;52.92;94734.63;828978;71;28640;-83
2021/07/07 22:46:12;;;;;;;11.70;9.90;;;;;;;26.42;52.72;94740.80;830236;70;31133;-83
2021/07/07 23:16:08;;;;;;;13.00;11.70;;;;;;;;;;828521;71;28344;-81
2021/07/07 23:31:35;;;;;;;12.40;11.30;;;;;;;26.37;53.43;94732.34;810297;72;30920;-76
2021/07/07 23:46:21;;;;;;;11.90;10.90;;;;;;;;;;834390;71;30815;-82
